Time;durP1;ratioP1;P1;durP2;ratioP2;P2;SDS_P1;SDS_P2;PMS_P1;PMS_P2;Temp;Humidity;BMP_temperature;BMP_pressure;BME280_temperature;BME280_humidity;BME280_pressure;Samples;Min_cycle;Max_cycle;Signal;HPM_P1;HPM_P2
2023/06/26 00:02:12;;;;;;;1999.90;999.90;;;17.60;99.90;;;;;;5053970;28;20064;-77
2023/06/26 00:04:37;;;;;;;1999.90;999.90;;;17.60;99.90;;;;;;5054187;28;20042;-77
2023/06/26 00:07:04;;;;;;;1999.90;999.90;;;17.50;99.90;;;;;;5053971;28;20478;-77
2023/06/26 00:09:30;;;;;;;1999.90;999.90;;;17.50;99.90;;;;;;5054530;28;20487;-77
2023/06/26 00:11:55;;;;;;;1999.90;999.90;;;17.50;99.90;;;;;;5056237;28;20033;-77
2023/06/26 00:14:21;;;;;;;1999.90;999.90;;;17.40;99.90;;;;;;5054225;28;20037;-77
2023/06/26 00:16:49;;;;;;;1999.90;999.90;;;17.40;99.90;;;;;;5056651;28;20041;-78
2023/06/26 00:19:15;;;;;;;1999.90;999.90;;;17.40;99.90;;;;;;5062505;28;20037;-77
2023/06/26 00:21:40;;;;;;;1999.90;999.90;;;17.40;99.90;;;;;;5061581;28;20022;-77
2023/06/26 00:24:06;;;;;;;1999.90;999.90;;;17.30;99.90;;;;;;5059728;28;20037;-77
2023/06/26 00:26:31;;;;;;;1999.90;999.90;;;17.30;99.90;;;;;;5058887;28;20083;-78
2023/06/26 00:28:57;;;;;;;1999.90;999.90;;;17.30;99.90;;;;;;5059910;28;20083;-77
2023/06/26 00:31:22;;;;;;;1999.90;999.90;;;17.30;99.90;;;;;;5059800;28;20032;-77
2023/06/26 00:33:48;;;;;;;1999.90;999.90;;;17.30;99.90;;;;;;5059781;28;20037;-77
2023/06/26 00:36:14;;;;;;;1999.90;999.90;;;17.30;99.90;;;;;;5058090;28;20034;-77
2023/06/26 00:38:39;;;;;;;1999.90;999.90;;;17.20;99.90;;;;;;5059861;28;20041;-77
2023/06/26 00:41:11;;;;;;;1999.90;999.90;;;17.20;99.90;;;;;;5058576;28;20080;-78
2023/06/26 00:43:37;;;;;;;1999.90;999.90;;;17.20;99.90;;;;;;5059901;28;20038;-77
2023/06/26 00:46:03;;;;;;;1999.90;999.90;;;17.10;99.90;;;;;;5059466;28;20037;-78
2023/06/26 00:48:29;;;;;;;1999.90;999.90;;;17.10;99.90;;;;;;5059624;28;20061;-77
2023/06/26 00:50:54;;;;;;;1999.90;999.90;;;17.10;99.90;;;;;;5059158;28;20033;-78
2023/06/26 00:53:21;;;;;;;1999.90;999.90;;;17.10;99.90;;;;;;5061026;28;20034;-78
2023/06/26 00:55:47;;;;;;;1999.90;999.90;;;17.10;99.90;;;;;;5060212;28;20072;-78
2023/06/26 00:58:12;;;;;;;1999.90;999.90;;;17.10;99.90;;;;;;5059939;28;20057;-78
2023/06/26 01:00:40;;;;;;;1999.90;999.90;;;17.10;99.90;;;;;;5057426;28;20552;-78
2023/06/26 01:03:06;;;;;;;1999.90;999.90;;;17.10;99.90;;;;;;5058610;28;20112;-77
2023/06/26 01:05:31;;;;;;;1999.90;999.90;;;17.00;99.90;;;;;;5059549;28;20120;-77
2023/06/26 01:07:58;;;;;;;1999.90;999.90;;;17.00;99.90;;;;;;5059157;28;20080;-78
2023/06/26 01:10:24;;;;;;;1999.90;999.90;;;17.00;99.90;;;;;;5057437;28;20555;-77
2023/06/26 01:12:50;;;;;;;1999.90;999.90;;;17.00;99.90;;;;;;5058786;28;20045;-77
2023/06/26 01:15:15;;;;;;;1999.90;999.90;;;16.90;99.90;;;;;;5058838;28;20045;-78
2023/06/26 01:17:45;;;;;;;1999.90;999.90;;;16.90;99.90;;;;;;5057261;28;20052;-77
2023/06/26 01:20:11;;;;;;;1999.90;999.90;;;16.90;99.90;;;;;;5057024;28;20505;-77
2023/06/26 01:22:51;;;;;;;1999.90;999.90;;;16.90;99.90;;;;;;5059143;28;20030;-77
2023/06/26 01:25:19;;;;;;;1999.90;999.90;;;16.80;99.90;;;;;;5058758;28;20037;-78
2023/06/26 01:27:52;;;;;;;1999.90;999.90;;;16.80;99.90;;;;;;5059094;28;20116;-78
2023/06/26 01:30:19;;;;;;;1999.90;999.90;;;16.80;99.90;;;;;;5059106;28;20037;-77
2023/06/26 01:32:45;;;;;;;1999.90;999.90;;;16.80;99.90;;;;;;5059104;28;20044;-78
2023/06/26 01:35:12;;;;;;;1999.90;999.90;;;16.70;99.90;;;;;;5059817;28;20048;-78
2023/06/26 01:37:37;;;;;;;1999.90;999.90;;;16.70;99.90;;;;;;5059759;28;20041;-77
2023/06/26 01:40:05;;;;;;;1999.90;999.90;;;16.70;99.90;;;;;;5060271;28;20037;-78
2023/06/26 01:42:32;;;;;;;1999.90;999.90;;;16.70;99.90;;;;;;5059089;28;20507;-77
2023/06/26 01:45:05;;;;;;;1999.90;999.90;;;16.70;99.90;;;;;;5058447;28;20140;-77
2023/06/26 01:47:34;;;;;;;1999.90;999.90;;;16.60;99.90;;;;;;5056443;28;20033;-78
2023/06/26 01:50:16;;;;;;;1999.90;999.90;;;16.60;99.90;;;;;;5058307;28;20044;-77
2023/06/26 01:52:49;;;;;;;1999.90;999.90;;;16.60;99.90;;;;;;5057966;28;20038;-76
2023/06/26 01:55:38;;;;;;;1999.90;999.90;;;16.50;99.90;;;;;;5057512;28;20037;-78
2023/06/26 01:58:04;;;;;;;1999.90;999.90;;;16.50;99.90;;;;;;5056586;28;20469;-76
2023/06/26 02:00:31;;;;;;;1999.90;999.90;;;16.50;99.90;;;;;;5056976;28;20030;-77
2023/06/26 02:02:57;;;;;;;1999.90;999.90;;;16.40;99.90;;;;;;5056730;28;20212;-77
2023/06/26 02:05:23;;;;;;;1999.90;999.90;;;16.40;99.90;;;;;;5055898;28;20176;-77
2023/06/26 02:07:51;;;;;;;1999.90;999.90;;;16.30;99.90;;;;;;5055881;28;20120;-77
2023/06/26 02:10:17;;;;;;;1999.90;999.90;;;16.30;99.90;;;;;;5057428;28;20501;-78
2023/06/26 02:12:44;;;;;;;1999.90;999.90;;;16.30;99.90;;;;;;5055548;28;20128;-77
2023/06/26 02:15:09;;;;;;;1999.90;999.90;;;16.30;99.90;;;;;;5057579;28;20045;-77
2023/06/26 02:17:35;;;;;;;1999.90;999.90;;;16.30;99.90;;;;;;5058721;28;20029;-77
2023/06/26 02:20:00;;;;;;;1999.90;999.90;;;16.20;99.90;;;;;;5058217;28;20091;-77
2023/06/26 02:22:28;;;;;;;1999.90;999.90;;;16.20;99.90;;;;;;5055432;28;20037;-77
2023/06/26 02:24:53;;;;;;;1999.90;999.90;;;16.10;99.90;;;;;;5057082;28;20025;-77
2023/06/26 02:27:19;;;;;;;1999.90;999.90;;;16.00;99.90;;;;;;5057080;28;20042;-77
2023/06/26 02:29:45;;;;;;;1999.90;999.90;;;16.00;99.90;;;;;;5056663;28;20029;-77
2023/06/26 02:32:10;;;;;;;1999.90;999.90;;;16.00;99.90;;;;;;5056363;28;20034;-77
2023/06/26 02:34:36;;;;;;;1999.90;999.90;;;15.90;99.90;;;;;;5056578;28;20038;-77
2023/06/26 02:37:01;;;;;;;1999.90;999.90;;;15.90;99.90;;;;;;5056185;28;20039;-77
2023/06/26 02:39:27;;;;;;;1999.90;999.90;;;15.80;99.90;;;;;;5057499;28;20461;-78
2023/06/26 02:41:53;;;;;;;1999.90;999.90;;;15.70;99.90;;;;;;5055308;28;20107;-77
2023/06/26 02:44:18;;;;;;;1999.90;999.90;;;15.80;99.90;;;;;;5056090;28;20041;-78
2023/06/26 02:46:44;;;;;;;1999.90;999.90;;;15.70;99.90;;;;;;5056018;28;20475;-77
2023/06/26 02:49:10;;;;;;;1999.90;999.90;;;15.60;99.90;;;;;;5056231;28;20471;-77
2023/06/26 02:51:35;;;;;;;1999.90;999.90;;;15.60;99.90;;;;;;5055665;28;20037;-77
2023/06/26 02:54:01;;;;;;;1999.90;999.90;;;15.70;99.90;;;;;;5055962;28;20029;-77
2023/06/26 02:56:29;;;;;;;1999.90;999.90;;;15.60;99.90;;;;;;5054830;28;20033;-77
2023/06/26 02:58:56;;;;;;;1999.90;999.90;;;15.60;99.90;;;;;;5055864;28;20175;-77
2023/06/26 03:01:22;;;;;;;1999.90;999.90;;;15.70;99.90;;;;;;5054180;28;20037;-77
2023/06/26 03:03:47;;;;;;;1999.90;999.90;;;15.60;99.90;;;;;;5056428;28;20037;-78
2023/06/26 03:06:14;;;;;;;1999.90;999.90;;;15.60;99.90;;;;;;5055677;28;20476;-77
2023/06/26 03:08:40;;;;;;;1999.90;999.90;;;15.50;99.90;;;;;;5056104;28;20041;-77
2023/06/26 03:11:07;;;;;;;1999.90;999.90;;;15.50;99.90;;;;;;5055604;28;20041;-77
2023/06/26 03:13:36;;;;;;;1999.90;999.90;;;15.40;99.90;;;;;;5054108;28;20037;-76
2023/06/26 03:16:03;;;;;;;1999.90;999.90;;;15.40;99.90;;;;;;5053449;28;20132;-77
2023/06/26 03:18:28;;;;;;;1999.90;999.90;;;15.30;99.90;;;;;;5055359;28;20029;-77
2023/06/26 03:20:56;;;;;;;1999.90;999.90;;;15.30;99.90;;;;;;5055807;28;20037;-77
2023/06/26 03:23:22;;;;;;;1999.90;999.90;;;15.30;99.90;;;;;;5056048;28;20033;-77
2023/06/26 03:25:49;;;;;;;1999.90;999.90;;;15.40;99.90;;;;;;5055699;28;20037;-77
2023/06/26 03:28:14;;;;;;;1999.90;999.90;;;15.30;99.90;;;;;;5055676;28;20040;-77
2023/06/26 03:30:40;;;;;;;1999.90;999.90;;;15.40;99.90;;;;;;5054056;28;20132;-76
2023/06/26 03:33:05;;;;;;;1999.90;999.90;;;15.40;99.90;;;;;;5055070;28;20056;-77
2023/06/26 03:35:31;;;;;;;1999.90;999.90;;;15.30;99.90;;;;;;5054980;28;20090;-77
2023/06/26 03:37:57;;;;;;;1999.90;999.90;;;15.30;99.90;;;;;;5053581;28;20472;-77
2023/06/26 03:40:23;;;;;;;1999.90;999.90;;;15.30;99.90;;;;;;5055447;28;20049;-77
2023/06/26 03:42:48;;;;;;;1999.90;999.90;;;15.30;99.90;;;;;;5055336;28;20033;-77
2023/06/26 03:45:14;;;;;;;1999.90;999.90;;;15.30;99.90;;;;;;5055111;28;20030;-77
2023/06/26 03:47:39;;;;;;;1999.90;999.90;;;15.20;99.90;;;;;;5055034;28;20042;-77
2023/06/26 03:50:05;;;;;;;1999.90;999.90;;;15.30;99.90;;;;;;5055156;28;20037;-77
2023/06/26 03:52:31;;;;;;;1999.90;999.90;;;15.20;99.90;;;;;;5056601;28;20057;-77
2023/06/26 03:54:57;;;;;;;1999.90;999.90;;;15.20;99.90;;;;;;5056953;28;20053;-77
2023/06/26 03:57:23;;;;;;;1999.90;999.90;;;15.20;99.90;;;;;;5057823;28;20036;-77
2023/06/26 03:59:49;;;;;;;1999.90;999.90;;;15.20;99.90;;;;;;5059139;28;20037;-77
2023/06/26 04:02:14;;;;;;;1999.90;999.90;;;15.20;99.90;;;;;;5056695;28;20081;-77
2023/06/26 04:04:40;;;;;;;1999.90;999.90;;;15.20;99.90;;;;;;5057060;28;20483;-77
2023/06/26 04:07:05;;;;;;;1999.90;999.90;;;15.30;99.90;;;;;;5056779;28;20038;-77
2023/06/26 04:09:31;;;;;;;1999.90;999.90;;;15.30;99.90;;;;;;5058184;28;20037;-77
2023/06/26 04:11:57;;;;;;;1999.90;999.90;;;15.40;99.90;;;;;;5058179;28;20032;-77
2023/06/26 04:14:22;;;;;;;1999.90;999.90;;;15.40;99.90;;;;;;5056987;28;20025;-77
2023/06/26 04:16:48;;;;;;;1999.90;999.90;;;15.50;99.90;;;;;;5057748;28;20487;-77
2023/06/26 04:19:13;;;;;;;1999.90;999.90;;;15.50;99.90;;;;;;5058350;28;20038;-77
2023/06/26 04:21:39;;;;;;;1999.90;999.90;;;15.50;99.90;;;;;;5057940;28;20037;-77
2023/06/26 04:24:05;;;;;;;1999.90;999.90;;;15.50;99.90;;;;;;5058628;28;20030;-77
2023/06/26 04:26:31;;;;;;;1999.90;999.90;;;15.60;99.90;;;;;;5058391;28;20025;-77
2023/06/26 04:28:56;;;;;;;1999.90;999.90;;;15.60;99.90;;;;;;5058352;28;20033;-77
2023/06/26 04:31:22;;;;;;;1999.90;999.90;;;15.70;99.90;;;;;;5057937;28;20411;-77
2023/06/26 04:33:51;;;;;;;1999.90;999.90;;;15.70;99.90;;;;;;5056308;28;20103;-77
2023/06/26 04:36:19;;;;;;;1999.90;999.90;;;15.80;99.90;;;;;;5057166;28;20108;-77
2023/06/26 04:38:44;;;;;;;1999.90;999.90;;;15.80;99.90;;;;;;5056000;28;20038;-77
2023/06/26 04:41:10;;;;;;;1999.90;999.90;;;15.80;99.90;;;;;;5056789;28;20033;-77
2023/06/26 04:43:35;;;;;;;1999.90;999.90;;;15.90;99.90;;;;;;5057704;28;20041;-77
2023/06/26 04:46:03;;;;;;;1999.90;999.90;;;15.90;99.90;;;;;;5057104;28;20373;-77
2023/06/26 04:48:30;;;;;;;1999.90;999.90;;;16.00;99.90;;;;;;5056700;28;20179;-76
2023/06/26 04:50:56;;;;;;;1999.90;999.90;;;16.00;99.90;;;;;;5057090;28;20034;-77
2023/06/26 04:53:23;;;;;;;1999.90;999.90;;;16.10;99.90;;;;;;5056344;28;20372;-77
2023/06/26 04:55:52;;;;;;;1999.90;999.90;;;16.10;99.90;;;;;;5055771;28;20045;-77
2023/06/26 04:58:19;;;;;;;1999.90;999.90;;;16.20;99.90;;;;;;5056158;28;20038;-77
2023/06/26 05:00:45;;;;;;;1999.90;999.90;;;16.30;99.90;;;;;;5058224;28;20415;-77
2023/06/26 05:03:12;;;;;;;1999.90;999.90;;;16.30;99.90;;;;;;5056969;28;20033;-77
2023/06/26 05:05:37;;;;;;;1999.90;999.90;;;16.40;99.90;;;;;;5057683;28;20040;-76
2023/06/26 05:08:23;;;;;;;1999.90;999.90;;;16.50;99.90;;;;;;5057376;28;20681;-77
2023/06/26 05:10:49;;;;;;;1999.90;999.90;;;16.50;99.90;;;;;;5058292;28;20036;-77
2023/06/26 05:13:17;;;;;;;1999.90;999.90;;;16.70;99.90;;;;;;5057925;28;20026;-77
2023/06/26 05:15:43;;;;;;;1999.90;999.90;;;16.80;99.90;;;;;;5057219;28;20534;-77
2023/06/26 05:18:09;;;;;;;1999.90;999.90;;;16.90;99.90;;;;;;5057816;28;20045;-77
2023/06/26 05:20:36;;;;;;;1999.90;999.90;;;17.00;99.90;;;;;;5056298;28;20065;-77
2023/06/26 05:23:05;;;;;;;1999.90;999.90;;;17.10;99.90;;;;;;5057493;28;20083;-77
2023/06/26 05:25:31;;;;;;;1999.90;999.90;;;17.20;99.90;;;;;;5057331;28;20040;-77
2023/06/26 05:27:58;;;;;;;1999.90;999.90;;;17.30;99.90;;;;;;5057572;28;20118;-77
2023/06/26 05:30:27;;;;;;;1999.90;999.90;;;17.40;99.90;;;;;;5055838;28;20029;-77
2023/06/26 05:32:54;;;;;;;1999.90;999.90;;;17.50;99.90;;;;;;5056962;28;20022;-77
2023/06/26 05:35:21;;;;;;;1999.90;999.90;;;17.60;99.90;;;;;;5057500;28;20087;-77
2023/06/26 05:37:50;;;;;;;1999.90;999.90;;;17.70;99.90;;;;;;5059052;28;20041;-77
2023/06/26 05:40:19;;;;;;;1999.90;999.90;;;17.80;99.90;;;;;;5059301;28;20080;-77
2023/06/26 05:42:45;;;;;;;1999.90;999.90;;;18.00;99.90;;;;;;5059566;28;20084;-77
2023/06/26 05:45:10;;;;;;;1999.90;999.90;;;18.10;99.90;;;;;;5057729;28;20499;-77
2023/06/26 05:47:36;;;;;;;1999.90;999.90;;;18.20;99.90;;;;;;5056970;28;20044;-77
2023/06/26 05:50:02;;;;;;;1999.90;999.90;;;18.30;99.90;;;;;;5056743;28;20060;-78
2023/06/26 05:52:29;;;;;;;1999.90;999.90;;;18.40;99.90;;;;;;5057383;28;20025;-77
2023/06/26 05:54:58;;;;;;;1999.90;999.90;;;18.50;99.90;;;;;;5057228;28;20415;-77
2023/06/26 05:57:24;;;;;;;1999.90;999.90;;;18.60;99.90;;;;;;5057375;28;20065;-78
2023/06/26 05:59:51;;;;;;;1999.90;999.90;;;18.60;99.90;;;;;;5055906;28;20921;-77
2023/06/26 06:02:16;;;;;;;1999.90;999.90;;;18.80;99.90;;;;;;5056548;28;20029;-76
2023/06/26 06:04:42;;;;;;;1999.90;999.90;;;18.90;99.90;;;;;;5057120;28;20830;-78
2023/06/26 06:07:07;;;;;;;1999.90;999.90;;;19.10;99.90;;;;;;5057397;28;20514;-77
2023/06/26 06:09:33;;;;;;;1999.90;999.90;;;19.20;99.90;;;;;;5057209;28;20041;-77
2023/06/26 06:11:59;;;;;;;1999.90;999.90;;;19.40;99.90;;;;;;5057648;28;20169;-78
2023/06/26 06:14:25;;;;;;;1999.90;999.90;;;19.40;99.90;;;;;;5057553;28;20116;-78
2023/06/26 06:16:50;;;;;;;1999.90;999.90;;;19.50;99.90;;;;;;5056769;28;20056;-77
2023/06/26 06:19:16;;;;;;;1999.90;999.90;;;19.60;99.90;;;;;;5056534;28;20100;-77
2023/06/26 06:21:42;;;;;;;1999.90;999.90;;;19.70;99.90;;;;;;5056215;28;20112;-77
2023/06/26 06:24:09;;;;;;;1999.90;999.90;;;19.80;99.90;;;;;;5056708;28;20107;-77
2023/06/26 06:26:35;;;;;;;1999.90;999.90;;;20.00;99.90;;;;;;5056929;28;20024;-77
2023/06/26 06:29:00;;;;;;;1999.90;999.90;;;20.00;99.90;;;;;;5056700;28;20108;-77
2023/06/26 06:31:28;;;;;;;1999.90;999.90;;;20.10;99.90;;;;;;5058143;28;20061;-77
2023/06/26 06:33:54;;;;;;;1999.90;999.90;;;20.20;99.90;;;;;;5059003;28;20022;-77
2023/06/26 06:36:19;;;;;;;1999.90;999.90;;;20.30;99.90;;;;;;5056897;28;20045;-77
2023/06/26 06:38:45;;;;;;;1999.90;999.90;;;20.40;99.90;;;;;;5057401;28;20025;-77
2023/06/26 06:41:11;;;;;;;1999.90;999.90;;;20.60;99.90;;;;;;5057000;28;20056;-77
2023/06/26 06:43:36;;;;;;;1999.90;999.90;;;20.80;99.90;;;;;;5057795;28;20518;-77
2023/06/26 06:46:02;;;;;;;1999.90;999.90;;;21.00;99.90;;;;;;5057232;28;20038;-77
2023/06/26 06:48:28;;;;;;;1999.90;999.90;;;21.10;99.90;;;;;;5057366;28;20768;-77
2023/06/26 06:50:53;;;;;;;1999.90;999.90;;;21.30;99.90;;;;;;5059418;28;20041;-77
2023/06/26 06:53:20;;;;;;;1999.90;999.90;;;21.30;99.90;;;;;;5061328;28;20060;-77
2023/06/26 06:55:46;;;;;;;1999.90;999.90;;;21.50;99.90;;;;;;5060636;28;20570;-77
2023/06/26 06:58:12;;;;;;;1999.90;999.90;;;21.70;99.90;;;;;;5057680;28;20084;-78
2023/06/26 07:00:37;;;;;;;1999.90;999.90;;;21.90;99.90;;;;;;5057057;28;20056;-78
2023/06/26 07:03:03;;;;;;;1999.90;999.90;;;22.10;99.70;;;;;;5057947;28;20124;-78
2023/06/26 07:05:29;;;;;;;1999.90;999.90;;;22.30;99.60;;;;;;5057356;28;20061;-77
2023/06/26 07:07:55;;;;;;;1999.90;999.90;;;22.60;98.30;;;;;;5057414;28;20045;-78
2023/06/26 07:10:20;;;;;;;1999.90;999.90;;;22.70;97.90;;;;;;5061027;28;20041;-77
2023/06/26 07:12:46;;;;;;;1999.90;999.90;;;23.00;97.60;;;;;;5055853;28;20030;-77
2023/06/26 07:15:12;;;;;;;1999.90;999.90;;;23.10;97.10;;;;;;5057907;28;20052;-77
2023/06/26 07:17:38;;;;;;;1999.90;999.90;;;23.20;95.30;;;;;;5059326;28;20041;-78
2023/06/26 07:20:06;;;;;;;1999.90;999.90;;;23.30;94.90;;;;;;5062174;28;20029;-78
2023/06/26 07:22:32;;;;;;;1999.90;999.90;;;23.50;95.00;;;;;;5060402;28;20018;-78
2023/06/26 07:24:58;;;;;;;1999.90;999.90;;;23.60;93.50;;;;;;5058166;28;20034;-78
2023/06/26 07:27:23;;;;;;;1999.90;999.90;;;24.00;92.90;;;;;;5061803;28;20025;-79
2023/06/26 07:29:49;;;;;;;1999.90;999.90;;;24.30;91.20;;;;;;5066513;28;20033;-77
2023/06/26 07:32:14;;;;;;;1999.90;999.90;;;24.50;90.50;;;;;;5066143;28;20037;-77
2023/06/26 07:34:40;;;;;;;1999.90;999.90;;;24.60;89.10;;;;;;5062870;28;20548;-78
2023/06/26 07:37:05;;;;;;;1999.90;999.90;;;24.90;89.40;;;;;;5064452;28;20065;-78
2023/06/26 07:39:31;;;;;;;1999.90;999.90;;;25.20;88.00;;;;;;5062479;28;20043;-78
2023/06/26 07:41:59;;;;;;;1999.90;999.90;;;25.50;87.00;;;;;;5060677;28;20382;-79
2023/06/26 07:44:24;;;;;;;1999.90;999.90;;;25.50;85.90;;;;;;5062515;28;20037;-78
2023/06/26 07:46:50;;;;;;;1999.90;999.90;;;25.60;85.50;;;;;;5063181;28;20525;-78
2023/06/26 07:49:15;;;;;;;1999.90;999.90;;;25.80;84.50;;;;;;5064506;28;20044;-78
2023/06/26 07:51:41;;;;;;;1999.90;999.90;;;26.00;83.90;;;;;;5065266;28;20049;-78
2023/06/26 07:54:07;;;;;;;1999.90;999.90;;;26.20;82.20;;;;;;5066654;28;20043;-79
2023/06/26 07:56:51;;;;;;;1999.90;999.90;;;26.40;83.40;;;;;;5067375;28;20043;-78
2023/06/26 07:59:17;;;;;;;1999.90;999.90;;;26.50;82.60;;;;;;5066984;28;20069;-78
2023/06/26 08:01:43;;;;;;;1999.90;999.90;;;26.80;80.70;;;;;;5067110;28;20079;-78
2023/06/26 08:04:10;;;;;;;1999.90;999.90;;;26.80;80.40;;;;;;5067425;28;20108;-78
2023/06/26 08:06:40;;;;;;;1999.90;999.90;;;26.90;79.40;;;;;;5068624;28;20105;-78
2023/06/26 08:09:07;;;;;;;1999.90;999.90;;;26.90;79.80;;;;;;5068440;28;20117;-77
2023/06/26 08:11:33;;;;;;;1999.90;999.90;;;27.10;80.70;;;;;;5066969;28;20094;-78
2023/06/26 08:13:59;;;;;;;1999.90;999.90;;;27.40;80.40;;;;;;5067792;28;20034;-78
2023/06/26 08:16:24;;;;;;;1999.90;999.90;;;27.40;77.80;;;;;;5065838;28;20041;-78
2023/06/26 08:18:50;;;;;;;1999.90;999.90;;;27.60;79.70;;;;;;5068586;28;20033;-78
2023/06/26 08:21:16;;;;;;;1999.90;999.90;;;27.80;78.50;;;;;;5068677;28;20036;-78
2023/06/26 08:23:41;;;;;;;1999.90;999.90;;;27.90;77.50;;;;;;5067642;28;20503;-79
2023/06/26 08:26:07;;;;;;;1999.90;999.90;;;28.00;77.50;;;;;;5065499;28;20460;-78
2023/06/26 08:28:32;;;;;;;1999.90;999.90;;;27.90;77.80;;;;;;5068832;28;20108;-79
2023/06/26 08:30:59;;;;;;;1999.90;999.90;;;28.00;78.50;;;;;;5066680;28;20133;-78
2023/06/26 08:33:25;;;;;;;1999.90;999.90;;;28.30;77.80;;;;;;5067494;28;20100;-79
2023/06/26 08:35:50;;;;;;;1999.90;999.90;;;28.60;76.00;;;;;;5067272;28;20496;-78
2023/06/26 08:38:16;;;;;;;1999.90;999.90;;;28.70;75.70;;;;;;5072593;28;20053;-78
2023/06/26 08:40:41;;;;;;;1999.90;999.90;;;29.00;74.80;;;;;;5071806;28;20034;-79
2023/06/26 08:43:07;;;;;;;1999.90;999.90;;;29.10;74.70;;;;;;5065297;28;20741;-79
2023/06/26 08:45:33;;;;;;;1999.90;999.90;;;29.20;73.90;;;;;;5064598;28;20499;-79
2023/06/26 08:48:01;;;;;;;1999.90;999.90;;;29.30;73.30;;;;;;5066727;28;20060;-78
2023/06/26 08:50:30;;;;;;;1999.90;999.90;;;29.20;72.50;;;;;;5064169;28;20124;-79
2023/06/26 08:53:13;;;;;;;1999.90;999.90;;;29.00;73.30;;;;;;5060857;28;20064;-79
2023/06/26 08:55:41;;;;;;;1999.90;999.90;;;29.20;71.80;;;;;;5063594;28;20411;-78
2023/06/26 08:58:07;;;;;;;1999.90;999.90;;;29.30;72.40;;;;;;5065405;28;20032;-78
2023/06/26 09:00:33;;;;;;;1999.90;999.90;;;29.60;72.30;;;;;;5063545;28;20037;-79
2023/06/26 09:02:59;;;;;;;1999.90;999.90;;;29.90;71.20;;;;;;5062843;28;20033;-78
2023/06/26 09:05:27;;;;;;;1999.90;999.90;;;29.90;70.60;;;;;;5066058;28;20115;-79
2023/06/26 09:07:55;;;;;;;1999.90;999.90;;;30.10;69.60;;;;;;5065153;28;20030;-78
2023/06/26 09:10:21;;;;;;;1999.90;999.90;;;30.00;69.10;;;;;;5061246;28;20036;-78
2023/06/26 09:12:47;;;;;;;1999.90;999.90;;;30.00;68.50;;;;;;5064040;28;20033;-79
2023/06/26 09:15:15;;;;;;;1999.90;999.90;;;30.00;69.00;;;;;;5063957;28;20482;-79
2023/06/26 09:17:42;;;;;;;1999.90;999.90;;;30.10;67.80;;;;;;5067416;28;20048;-79
2023/06/26 09:20:08;;;;;;;1999.90;999.90;;;30.20;68.10;;;;;;5064512;28;20025;-79
2023/06/26 09:22:36;;;;;;;1999.90;999.90;;;30.30;68.20;;;;;;5065896;28;20104;-79
2023/06/26 09:25:03;;;;;;;1999.90;999.90;;;30.40;67.50;;;;;;5065528;28;20057;-79
2023/06/26 09:27:30;;;;;;;1999.90;999.90;;;30.50;68.10;;;;;;5067882;28;20040;-79
2023/06/26 09:29:57;;;;;;;1999.90;999.90;;;30.60;67.20;;;;;;5062780;28;20030;-79
2023/06/26 09:32:24;;;;;;;1999.90;999.90;;;30.80;66.90;;;;;;5067436;28;20045;-79
2023/06/26 09:34:53;;;;;;;1999.90;999.90;;;30.90;66.20;;;;;;5067403;28;20037;-79
2023/06/26 09:37:19;;;;;;;1999.90;999.90;;;31.00;65.80;;;;;;5068427;28;20029;-79
2023/06/26 09:39:45;;;;;;;1999.90;999.90;;;31.10;65.40;;;;;;5071681;28;20033;-79
2023/06/26 09:42:13;;;;;;;1999.90;999.90;;;31.20;67.10;;;;;;5069444;28;20037;-79
2023/06/26 09:44:47;;;;;;;1999.90;999.90;;;31.30;65.20;;;;;;5063568;28;20119;-79
2023/06/26 09:47:15;;;;;;;1999.90;999.90;;;31.40;65.20;;;;;;5063354;28;20527;-79
2023/06/26 09:49:42;;;;;;;1999.90;999.90;;;31.20;65.40;;;;;;5062192;28;20037;-81
2023/06/26 09:52:08;;;;;;;1999.90;999.90;;;31.10;65.20;;;;;;5060141;28;20168;-79
2023/06/26 09:54:36;;;;;;;1999.90;999.90;;;30.90;65.80;;;;;;5063582;28;20093;-79
2023/06/26 09:57:08;;;;;;;1999.90;999.90;;;30.90;66.20;;;;;;5064504;28;20055;-80
2023/06/26 09:59:35;;;;;;;1999.90;999.90;;;31.10;67.60;;;;;;5066763;28;20870;-80
2023/06/26 10:02:00;;;;;;;1999.90;999.90;;;31.40;66.70;;;;;;5060362;28;20089;-79
2023/06/26 10:04:26;;;;;;;1999.90;999.90;;;31.50;67.00;;;;;;5061081;28;20117;-79
2023/06/26 10:06:56;;;;;;;1999.90;999.90;;;31.80;64.80;;;;;;5065445;28;20042;-80
2023/06/26 10:09:23;;;;;;;1999.90;999.90;;;31.80;65.70;;;;;;5065127;28;20037;-79
2023/06/26 10:12:07;;;;;;;1999.90;999.90;;;32.00;64.50;;;;;;5064765;28;20048;-80
2023/06/26 10:14:37;;;;;;;1999.90;999.90;;;32.20;62.80;;;;;;5064764;28;20094;-79
2023/06/26 10:17:07;;;;;;;1999.90;999.90;;;32.30;62.80;;;;;;5063709;28;20035;-79
2023/06/26 10:19:33;;;;;;;1999.90;999.90;;;32.20;63.90;;;;;;5066124;28;20033;-79
2023/06/26 10:22:01;;;;;;;1999.90;999.90;;;32.20;62.90;;;;;;5065344;28;20073;-79
2023/06/26 10:24:31;;;;;;;1999.90;999.90;;;32.10;63.50;;;;;;5066564;28;20085;-79
2023/06/26 10:27:29;;;;;;;1999.90;999.90;;;32.00;64.10;;;;;;5064839;28;20033;-79
2023/06/26 10:29:58;;;;;;;1999.90;999.90;;;32.00;65.50;;;;;;5047402;28;20124;-80
2023/06/26 10:32:27;;;;;;;1999.90;999.90;;;32.10;65.60;;;;;;5062376;28;20041;-80
2023/06/26 10:34:55;;;;;;;1999.90;999.90;;;31.60;65.60;;;;;;5064305;28;20033;-80
2023/06/26 10:37:20;;;;;;;1999.90;999.90;;;31.20;66.60;;;;;;5066634;28;20053;-80
2023/06/26 10:39:47;;;;;;;1999.90;999.90;;;31.10;67.10;;;;;;5065326;28;20041;-80
2023/06/26 10:42:13;;;;;;;1999.90;999.90;;;31.30;66.40;;;;;;5061898;28;20557;-80
2023/06/26 10:44:43;;;;;;;1999.90;999.90;;;31.20;67.00;;;;;;5068506;28;20044;-80
2023/06/26 10:47:09;;;;;;;1999.90;999.90;;;31.00;67.30;;;;;;5066481;28;20387;-80
2023/06/26 10:49:37;;;;;;;1999.90;999.90;;;31.40;66.90;;;;;;5060319;28;20071;-80
2023/06/26 10:52:02;;;;;;;1999.90;999.90;;;31.80;68.10;;;;;;5060486;28;20104;-80
2023/06/26 10:54:30;;;;;;;1999.90;999.90;;;32.20;66.80;;;;;;5060422;28;20823;-81
2023/06/26 10:56:56;;;;;;;1999.90;999.90;;;32.50;65.60;;;;;;5059409;28;20036;-81
2023/06/26 10:59:24;;;;;;;1999.90;999.90;;;32.30;67.00;;;;;;5060243;28;20055;-81
2023/06/26 11:01:59;;;;;;;1999.90;999.90;;;31.80;65.90;;;;;;5061067;28;20061;-80
2023/06/26 11:04:52;;;;;;;1999.90;999.90;;;31.40;66.90;;;;;;5060339;28;20529;-80
2023/06/26 11:07:23;;;;;;;1999.90;999.90;;;30.90;68.40;;;;;;5063818;28;20041;-79
2023/06/26 11:10:09;;;;;;;1999.90;999.90;;;30.60;69.30;;;;;;5068454;28;20064;-80
2023/06/26 11:12:38;;;;;;;1999.90;999.90;;;30.10;70.20;;;;;;5062023;28;20862;-81
2023/06/26 11:15:11;;;;;;;1999.90;999.90;;;29.90;71.80;;;;;;5060903;28;20041;-80
2023/06/26 11:17:37;;;;;;;1999.90;999.90;;;29.60;72.00;;;;;;5060505;28;20529;-81
2023/06/26 11:20:08;;;;;;;1999.90;999.90;;;29.70;72.50;;;;;;5059605;28;20041;-80
2023/06/26 11:22:41;;;;;;;1999.90;999.90;;;30.10;72.70;;;;;;5060638;28;20525;-80
2023/06/26 11:25:08;;;;;;;1999.90;999.90;;;30.80;72.10;;;;;;5061339;28;20111;-80
2023/06/26 11:27:44;;;;;;;1999.90;999.90;;;31.00;70.70;;;;;;5062291;28;20030;-79
2023/06/26 11:30:11;;;;;;;1999.90;999.90;;;31.10;71.00;;;;;;5058961;28;20127;-80
2023/06/26 11:32:38;;;;;;;1999.90;999.90;;;31.20;71.50;;;;;;5062253;28;20034;-79
2023/06/26 11:35:04;;;;;;;1999.90;999.90;;;31.50;69.90;;;;;;5061453;28;20038;-80
2023/06/26 11:37:31;;;;;;;1999.90;999.90;;;31.80;69.70;;;;;;5063033;28;20045;-79
2023/06/26 11:39:56;;;;;;;1999.90;999.90;;;31.40;69.10;;;;;;5061351;28;20807;-79
2023/06/26 11:42:27;;;;;;;1999.90;999.90;;;30.80;70.70;;;;;;5058909;28;20034;-79
2023/06/26 11:44:53;;;;;;;1999.90;999.90;;;31.00;71.50;;;;;;5057528;28;20034;-81
2023/06/26 11:47:20;;;;;;;1999.90;999.90;;;31.20;69.80;;;;;;5057776;28;20021;-81
2023/06/26 11:49:47;;;;;;;1999.90;999.90;;;31.80;69.60;;;;;;5057623;28;20526;-81
2023/06/26 11:52:14;;;;;;;1999.90;999.90;;;32.00;68.40;;;;;;5057967;28;20044;-80
2023/06/26 11:54:40;;;;;;;1999.90;999.90;;;32.30;67.90;;;;;;5057369;28;20521;-80
2023/06/26 11:57:06;;;;;;;1999.90;999.90;;;32.60;67.60;;;;;;5059207;28;20129;-79
2023/06/26 11:59:39;;;;;;;1999.90;999.90;;;32.60;67.00;;;;;;5055707;28;20089;-81